Time;durP1;ratioP1;P1;durP2;ratioP2;P2;SDS_P1;SDS_P2;PMS_P1;PMS_P2;Temp;Humidity;BMP_temperature;BMP_pressure;BME280_temperature;BME280_humidity;BME280_pressure;Samples;Min_cycle;Max_cycle;Signal;HPM_P1;HPM_P2
2023/11/18 00:00:41;;;;;;;10.15;3.33;;;;;;;5.35;100.00;101621.09;5057229;28;20666;-66
2023/11/18 00:03:10;;;;;;;3.80;2.83;;;;;;;5.47;100.00;101627.94;5052199;28;20778;-65
2023/11/18 00:05:39;;;;;;;4.03;2.13;;;;;;;5.24;100.00;101624.84;5057682;28;20679;-65
2023/11/18 00:08:08;;;;;;;5.22;2.25;;;;;;;5.22;100.00;101626.00;5051205;28;20286;-65
2023/11/18 00:10:38;;;;;;;3.67;2.25;;;;;;;5.31;100.00;101630.44;5040114;28;20189;-66
2023/11/18 00:13:08;;;;;;;2.47;2.08;;;;;;;5.23;100.00;101631.19;5052291;28;20208;-66
2023/11/18 00:15:37;;;;;;;3.13;2.90;;;;;;;5.19;100.00;101631.63;5052205;28;20192;-66
2023/11/18 00:18:06;;;;;;;4.20;2.67;;;;;;;5.36;100.00;101638.06;5052001;28;20242;-65
2023/11/18 00:20:35;;;;;;;6.07;2.10;;;;;;;5.23;100.00;101643.75;5052436;28;20526;-66
2023/11/18 00:23:05;;;;;;;19.13;3.03;;;;;;;5.26;100.00;101643.47;5050679;28;20582;-65
2023/11/18 00:25:36;;;;;;;6.28;2.40;;;;;;;5.24;100.00;101646.31;5051826;28;20238;-68
2023/11/18 00:28:07;;;;;;;3.70;2.20;;;;;;;5.30;100.00;101652.91;5056055;28;20246;-67
2023/11/18 00:30:36;;;;;;;17.30;2.78;;;;;;;5.28;100.00;101660.25;5051143;28;20729;-65
2023/11/18 00:33:05;;;;;;;3.35;2.45;;;;;;;5.22;100.00;101658.19;5049122;28;20235;-66
2023/11/18 00:35:34;;;;;;;5.32;2.97;;;;;;;5.34;100.00;101661.50;5054887;28;20200;-65
2023/11/18 00:38:03;;;;;;;4.68;3.35;;;;;;;5.28;100.00;101656.75;5057397;28;20231;-64
2023/11/18 00:40:32;;;;;;;4.10;2.83;;;;;;;5.36;100.00;101671.09;5055589;28;20212;-66
2023/11/18 00:43:02;;;;;;;3.17;2.38;;;;;;;5.38;100.00;101668.25;5050616;28;20717;-66
2023/11/18 00:45:32;;;;;;;3.85;2.55;;;;;;;5.29;100.00;101667.31;5055277;28;20192;-66
2023/11/18 00:48:01;;;;;;;3.08;2.13;;;;;;;5.24;100.00;101680.34;5056147;28;20264;-66
2023/11/18 00:50:31;;;;;;;7.70;2.83;;;;;;;5.25;100.00;101679.34;5057553;28;20586;-65
2023/11/18 00:53:00;;;;;;;5.20;2.72;;;;;;;5.27;100.00;101676.53;5054033;28;20204;-66
2023/11/18 00:55:29;;;;;;;6.10;2.42;;;;;;;5.25;100.00;101685.56;5057333;28;20622;-67
2023/11/18 00:57:59;;;;;;;2.28;1.58;;;;;;;5.25;100.00;101690.94;5073650;28;20246;-67
2023/11/18 01:00:28;;;;;;;4.85;2.53;;;;;;;5.34;100.00;101688.34;5054855;28;20192;-66
2023/11/18 01:02:58;;;;;;;3.78;2.30;;;;;;;5.33;100.00;101695.53;5048973;28;20203;-66
2023/11/18 01:05:27;;;;;;;2.58;2.15;;;;;;;5.31;100.00;101700.22;5053526;28;20232;-68
2023/11/18 01:07:55;;;;;;;3.65;1.63;;;;;;;5.43;100.00;101699.03;5053256;28;20189;-67
2023/11/18 01:10:24;;;;;;;4.05;3.15;;;;;;;5.43;100.00;101709.75;5049623;28;20204;-66
2023/11/18 01:12:55;;;;;;;2.20;1.33;;;;;;;5.24;100.00;101704.50;5049898;28;20682;-65
2023/11/18 01:15:24;;;;;;;4.80;2.65;;;;;;;5.12;100.00;101711.06;5059617;28;20300;-65
2023/11/18 01:17:53;;;;;;;3.70;2.05;;;;;;;5.12;100.00;101711.91;5054658;28;20541;-66
2023/11/18 01:20:24;;;;;;;2.58;1.80;;;;;;;5.07;100.00;101718.69;5051638;28;20220;-65
2023/11/18 01:22:53;;;;;;;2.70;1.98;;;;;;;5.15;100.00;101721.47;5056258;28;20208;-64
2023/11/18 01:25:22;;;;;;;4.35;2.55;;;;;;;5.16;100.00;101717.81;5059560;28;20213;-66
2023/11/18 01:27:51;;;;;;;5.20;2.25;;;;;;;5.21;100.00;101720.91;5056579;28;20664;-65
2023/11/18 01:30:20;;;;;;;4.68;3.35;;;;;;;5.18;100.00;101716.66;5054980;28;20196;-65
2023/11/18 01:32:49;;;;;;;4.95;2.00;;;;;;;5.16;100.00;101726.72;5054286;28;20220;-66
2023/11/18 01:35:26;;;;;;;3.58;2.17;;;;;;;5.04;100.00;101725.19;5055006;28;20185;-65
2023/11/18 01:37:55;;;;;;;3.17;2.33;;;;;;;5.07;100.00;101718.69;5051795;28;20234;-66
2023/11/18 01:40:24;;;;;;;3.50;2.65;;;;;;;4.98;100.00;101724.94;5048649;28;20201;-66
2023/11/18 01:42:54;;;;;;;5.22;2.83;;;;;;;5.05;100.00;101721.50;5058887;28;20205;-64
2023/11/18 01:45:26;;;;;;;2.95;2.35;;;;;;;5.31;100.00;101726.22;5054243;28;20204;-67
2023/11/18 01:47:56;;;;;;;3.50;2.47;;;;;;;5.12;100.00;101721.78;5057319;28;20219;-66
2023/11/18 01:50:27;;;;;;;3.85;2.55;;;;;;;5.20;100.00;101720.06;5064785;28;20203;-66
2023/11/18 01:52:55;;;;;;;4.60;3.72;;;;;;;5.19;100.00;101728.22;5050665;28;20196;-66
2023/11/18 01:55:24;;;;;;;5.60;2.55;;;;;;;5.25;100.00;101727.66;5060436;28;20567;-67
2023/11/18 01:57:53;;;;;;;3.70;1.63;;;;;;;5.29;100.00;101725.50;5059020;28;20631;-65
2023/11/18 02:00:23;;;;;;;2.50;1.80;;;;;;;5.24;100.00;101728.63;5055288;28;20200;-67
2023/11/18 02:02:52;;;;;;;4.72;2.72;;;;;;;5.34;100.00;101726.78;5057406;28;20189;-65
2023/11/18 02:05:21;;;;;;;4.28;2.55;;;;;;;5.38;100.00;101735.34;5053980;28;20211;-66
2023/11/18 02:07:52;;;;;;;3.58;2.58;;;;;;;5.19;100.00;101744.34;5057434;28;20193;-65
2023/11/18 02:10:21;;;;;;;5.57;3.10;;;;;;;5.14;100.00;101747.47;5048061;28;20243;-66
2023/11/18 02:12:58;;;;;;;4.05;2.50;;;;;;;5.07;100.00;101751.75;5054544;28;20197;-67
2023/11/18 02:15:29;;;;;;;2.85;2.40;;;;;;;5.08;100.00;101747.22;5057042;28;20231;-66
2023/11/18 02:18:00;;;;;;;2.13;1.45;;;;;;;5.04;100.00;101745.78;5050908;28;20667;-67
2023/11/18 02:20:31;;;;;;;2.92;1.85;;;;;;;4.99;100.00;101743.56;5058883;28;20216;-66
2023/11/18 02:23:03;;;;;;;2.55;1.58;;;;;;;4.99;100.00;101748.06;5061041;28;20205;-66
2023/11/18 02:25:35;;;;;;;1.88;1.48;;;;;;;4.99;100.00;101753.44;5061768;28;20208;-66
2023/11/18 02:28:06;;;;;;;4.70;2.63;;;;;;;4.91;100.00;101750.63;5065530;28;20220;-66
2023/11/18 02:30:35;;;;;;;9.07;2.25;;;;;;;4.81;100.00;101751.50;5066614;28;20196;-66
2023/11/18 02:33:11;;;;;;;3.03;1.92;;;;;;;4.79;100.00;101742.75;5075002;28;20193;-66
2023/11/18 02:35:48;;;;;;;3.85;3.47;;;;;;;4.81;100.00;101750.66;5057876;28;20648;-66
2023/11/18 02:38:20;;;;;;;5.78;2.55;;;;;;;4.69;100.00;101752.66;5060366;28;20260;-66
2023/11/18 02:40:53;;;;;;;4.10;2.45;;;;;;;4.71;100.00;101756.03;5061779;28;20234;-65
2023/11/18 02:43:24;;;;;;;4.00;2.67;;;;;;;4.82;100.00;101769.28;5056428;28;20221;-66
2023/11/18 02:45:54;;;;;;;3.83;1.58;;;;;;;4.88;100.00;101751.78;5065857;28;20216;-64
2023/11/18 02:48:24;;;;;;;3.85;2.05;;;;;;;4.93;100.00;101759.41;5064841;28;20252;-68
2023/11/18 02:50:52;;;;;;;2.33;1.80;;;;;;;4.95;100.00;101757.41;5061994;28;20230;-67
2023/11/18 02:53:21;;;;;;;4.28;2.67;;;;;;;5.03;100.00;101755.72;5059336;28;20216;-66
2023/11/18 02:55:51;;;;;;;3.90;2.30;;;;;;;5.20;100.00;101759.44;5061744;28;20192;-65
2023/11/18 02:58:21;;;;;;;3.45;2.15;;;;;;;5.09;100.00;101759.63;5059679;28;20204;-68
2023/11/18 03:00:54;;;;;;;4.28;1.98;;;;;;;5.01;100.00;101752.31;5066364;28;20193;-67
2023/11/18 03:03:23;;;;;;;6.13;2.45;;;;;;;4.98;100.00;101751.75;5068614;28;20216;-66
2023/11/18 03:05:52;;;;;;;3.08;2.65;;;;;;;5.02;100.00;101758.53;5068207;28;20232;-65
2023/11/18 03:08:21;;;;;;;3.63;1.90;;;;;;;4.97;100.00;101755.44;5065409;28;20188;-67
2023/11/18 03:10:52;;;;;;;2.20;2.00;;;;;;;4.95;100.00;101749.34;5065196;28;20247;-64
2023/11/18 03:13:23;;;;;;;4.70;2.70;;;;;;;4.90;100.00;101759.66;5066114;28;20678;-66
2023/11/18 03:15:51;;;;;;;2.72;2.05;;;;;;;4.98;100.00;101749.09;5061579;28;20671;-66
2023/11/18 03:18:21;;;;;;;3.00;2.75;;;;;;;4.98;100.00;101751.75;5066965;28;20212;-66
2023/11/18 03:20:49;;;;;;;4.47;1.77;;;;;;;4.93;100.00;101743.31;5047763;28;20193;-65
2023/11/18 03:23:18;;;;;;;3.75;1.95;;;;;;;4.90;100.00;101748.94;5048897;28;20212;-66
2023/11/18 03:25:47;;;;;;;2.95;1.38;;;;;;;4.91;100.00;101764.03;5038347;28;20217;-65
2023/11/18 03:28:16;;;;;;;4.78;1.90;;;;;;;4.88;100.00;101765.19;5048249;28;20546;-65
2023/11/18 03:30:47;;;;;;;4.93;2.58;;;;;;;4.85;100.00;101757.41;5052713;28;20610;-66
2023/11/18 03:33:16;;;;;;;3.35;2.72;;;;;;;4.88;100.00;101767.03;5064024;28;20266;-67
2023/11/18 03:35:45;;;;;;;4.10;2.15;;;;;;;4.87;100.00;101770.69;5050581;28;20195;-67
2023/11/18 03:38:14;;;;;;;2.53;2.25;;;;;;;4.89;100.00;101764.19;5045307;28;20243;-68
2023/11/18 03:40:44;;;;;;;4.35;2.20;;;;;;;4.88;100.00;101761.66;5048020;28;20213;-67
2023/11/18 03:43:13;;;;;;;6.18;1.98;;;;;;;4.97;100.00;101763.47;5051053;28;20225;-68
2023/11/18 03:45:43;;;;;;;2.95;2.20;;;;;;;5.15;100.00;101762.56;5044336;28;20215;-66
2023/11/18 03:48:14;;;;;;;3.60;3.25;;;;;;;4.98;100.00;101763.34;5050361;28;20193;-67
2023/11/18 03:50:44;;;;;;;5.05;3.30;;;;;;;4.97;100.00;101767.00;5052636;28;20220;-67
2023/11/18 03:53:13;;;;;;;1.90;1.48;;;;;;;4.98;100.00;101768.72;5048698;28;20719;-68
2023/11/18 03:55:42;;;;;;;1.88;1.50;;;;;;;4.96;100.00;101775.19;5051208;28;20666;-67
2023/11/18 03:58:11;;;;;;;9.10;2.50;;;;;;;4.94;100.00;101777.19;5048084;28;20197;-67
2023/11/18 04:00:43;;;;;;;4.10;1.45;;;;;;;4.91;100.00;101772.09;5044235;28;20192;-68
2023/11/18 04:03:13;;;;;;;2.88;2.03;;;;;;;5.08;100.00;101774.88;5037287;28;20193;-69
2023/11/18 04:05:42;;;;;;;3.97;2.05;;;;;;;5.12;100.00;101770.09;5050266;28;20209;-66
2023/11/18 04:08:11;;;;;;;2.78;1.73;;;;;;;5.01;100.00;101783.66;5056391;28;20726;-67
2023/11/18 04:10:40;;;;;;;4.30;3.38;;;;;;;5.07;100.00;101777.72;5052574;28;20196;-68
2023/11/18 04:13:10;;;;;;;3.25;2.45;;;;;;;5.00;100.00;101787.31;5051095;28;20282;-69
2023/11/18 04:15:38;;;;;;;4.43;3.55;;;;;;;5.00;100.00;101788.16;5056186;28;20193;-67
2023/11/18 04:18:07;;;;;;;3.83;1.85;;;;;;;5.06;100.00;101786.75;5057229;28;20199;-66
2023/11/18 04:20:37;;;;;;;2.40;1.90;;;;;;;4.91;100.00;101783.66;5053827;28;20647;-68
2023/11/18 04:23:07;;;;;;;3.22;1.83;;;;;;;4.90;100.00;101795.38;5047022;28;20254;-69
2023/11/18 04:25:35;;;;;;;3.55;2.30;;;;;;;5.00;100.00;101793.53;5048325;28;20752;-68
2023/11/18 04:28:07;;;;;;;3.17;1.95;;;;;;;5.08;100.00;101796.31;5054949;28;20212;-68
2023/11/18 04:30:35;;;;;;;5.20;3.58;;;;;;;5.04;100.00;101802.13;5055151;28;20184;-67
2023/11/18 04:33:04;;;;;;;2.65;1.88;;;;;;;5.00;100.00;101800.72;5046882;28;20671;-68
2023/11/18 04:35:34;;;;;;;3.67;1.85;;;;;;;4.92;100.00;101806.84;5053018;28;20188;-68
2023/11/18 04:38:04;;;;;;;3.70;2.15;;;;;;;4.94;100.00;101804.00;5054109;28;20189;-68
2023/11/18 04:40:33;;;;;;;2.58;1.75;;;;;;;4.95;100.00;101811.03;5046006;28;20585;-67
2023/11/18 04:43:02;;;;;;;3.75;2.45;;;;;;;4.97;100.00;101814.44;5055551;28;20524;-67
2023/11/18 04:45:32;;;;;;;3.50;2.00;;;;;;;5.02;100.00;101812.19;5049178;28;20210;-67
2023/11/18 04:48:01;;;;;;;2.58;1.45;;;;;;;4.87;100.00;101808.25;5053337;28;20242;-67
2023/11/18 04:50:31;;;;;;;8.13;2.40;;;;;;;4.87;100.00;101803.72;5048633;28;20197;-67
2023/11/18 04:53:00;;;;;;;3.95;2.28;;;;;;;4.93;100.00;101807.69;5054515;28;20572;-66
2023/11/18 04:55:31;;;;;;;4.78;2.45;;;;;;;4.90;100.00;101813.31;5055122;28;20200;-67
2023/11/18 04:57:59;;;;;;;3.33;2.03;;;;;;;4.82;100.00;101814.88;5058711;28;20196;-69
2023/11/18 05:00:28;;;;;;;3.50;1.65;;;;;;;4.82;100.00;101822.94;5063891;28;20224;-67
2023/11/18 05:02:58;;;;;;;5.22;3.40;;;;;;;4.88;100.00;101820.66;5056175;28;20570;-66
2023/11/18 05:05:27;;;;;;;3.30;2.53;;;;;;;5.01;100.00;101826.56;5055469;28;20602;-67
2023/11/18 05:07:56;;;;;;;8.85;2.83;;;;;;;5.00;100.00;101815.00;5055223;28;20247;-67
2023/11/18 05:10:25;;;;;;;5.10;2.28;;;;;;;5.04;100.00;101821.75;5053449;28;20663;-66
2023/11/18 05:12:56;;;;;;;3.92;3.28;;;;;;;5.04;100.00;101818.22;5049934;28;20193;-66
2023/11/18 05:15:25;;;;;;;4.03;3.47;;;;;;;5.24;100.00;101817.19;5051052;28;20192;-67
2023/11/18 05:17:55;;;;;;;2.50;1.80;;;;;;;5.11;100.00;101816.69;5058878;28;20193;-67
2023/11/18 05:20:24;;;;;;;5.05;2.08;;;;;;;4.90;100.00;101818.69;5055258;28;20193;-68
2023/11/18 05:22:53;;;;;;;3.05;2.13;;;;;;;4.84;100.00;101813.91;5061509;28;20535;-67
2023/11/18 05:25:22;;;;;;;3.75;2.30;;;;;;;4.86;100.00;101817.28;5054739;28;20205;-68
2023/11/18 05:27:51;;;;;;;3.22;1.50;;;;;;;5.06;100.00;101818.94;5047846;28;20189;-68
2023/11/18 05:30:23;;;;;;;10.45;3.47;;;;;;;5.06;100.00;101814.44;5048505;28;20193;-66
2023/11/18 05:32:51;;;;;;;3.35;2.47;;;;;;;5.08;100.00;101819.66;5054230;28;20185;-67
2023/11/18 05:35:23;;;;;;;4.03;2.40;;;;;;;5.02;100.00;101818.41;5054423;28;20216;-67
2023/11/18 05:37:52;;;;;;;6.95;2.70;;;;;;;5.13;100.00;101818.22;5055169;28;20215;-67
2023/11/18 05:40:21;;;;;;;3.88;1.65;;;;;;;5.07;100.00;101820.66;5055218;28;20200;-68
2023/11/18 05:42:52;;;;;;;4.68;3.00;;;;;;;4.99;100.00;101824.03;5056183;28;20188;-68
2023/11/18 05:45:31;;;;;;;3.60;1.77;;;;;;;4.98;100.00;101824.19;5054361;28;20197;-68
2023/11/18 05:48:00;;;;;;;2.28;2.03;;;;;;;4.98;100.00;101822.34;5056697;28;20272;-68
2023/11/18 05:50:29;;;;;;;7.57;5.20;;;;;;;4.94;100.00;101820.09;5048740;28;20262;-68
2023/11/18 05:52:58;;;;;;;3.75;2.40;;;;;;;4.88;100.00;101823.34;5055690;28;20199;-66
2023/11/18 05:55:27;;;;;;;9.27;3.15;;;;;;;4.80;100.00;101816.84;5062015;28;20280;-68
2023/11/18 05:57:59;;;;;;;5.75;2.50;;;;;;;4.78;100.00;101818.00;5055660;28;20189;-67
2023/11/18 06:00:32;;;;;;;4.45;2.90;;;;;;;4.75;100.00;101824.47;5056867;28;20222;-68
2023/11/18 06:03:09;;;;;;;7.15;2.95;;;;;;;4.72;100.00;101824.78;5054875;28;20219;-67
2023/11/18 06:05:38;;;;;;;11.48;2.92;;;;;;;4.69;100.00;101825.06;5061872;28;20689;-67
2023/11/18 06:08:07;;;;;;;3.47;2.60;;;;;;;4.90;100.00;101824.03;5051399;28;20197;-66
2023/11/18 06:10:38;;;;;;;5.90;3.63;;;;;;;4.81;100.00;101826.59;5061481;28;20192;-68
2023/11/18 06:13:08;;;;;;;5.32;4.05;;;;;;;4.93;100.00;101829.13;5051586;28;20211;-68
2023/11/18 06:15:39;;;;;;;4.43;2.67;;;;;;;4.81;100.00;101834.66;5053516;28;20196;-67
2023/11/18 06:18:08;;;;;;;6.70;3.83;;;;;;;4.71;100.00;101825.75;5055413;28;20203;-67
2023/11/18 06:20:38;;;;;;;3.05;2.33;;;;;;;4.75;100.00;101832.53;5053470;28;20192;-68
2023/11/18 06:23:07;;;;;;;4.40;2.47;;;;;;;4.93;100.00;101832.66;5056336;28;20196;-69
2023/11/18 06:25:36;;;;;;;11.98;3.42;;;;;;;4.90;100.00;101829.41;5054955;28;20189;-67
2023/11/18 06:28:07;;;;;;;6.32;3.28;;;;;;;4.82;100.00;101830.97;5061323;28;20219;-68
2023/11/18 06:30:38;;;;;;;9.77;3.33;;;;;;;4.77;100.00;101838.59;5054091;28;20196;-68
2023/11/18 06:33:10;;;;;;;4.13;3.30;;;;;;;4.72;100.00;101831.97;5056168;28;20188;-67
2023/11/18 06:35:40;;;;;;;8.85;2.78;;;;;;;4.70;100.00;101828.56;5057230;28;20184;-70
2023/11/18 06:38:12;;;;;;;6.95;2.72;;;;;;;4.55;100.00;101840.72;5054169;28;20189;-68
2023/11/18 06:40:41;;;;;;;5.22;3.05;;;;;;;4.53;100.00;101843.53;5056082;28;20262;-68
2023/11/18 06:43:10;;;;;;;7.90;2.92;;;;;;;4.52;100.00;101843.66;5045560;28;20706;-67
2023/11/18 06:45:46;;;;;;;4.13;2.20;;;;;;;4.52;100.00;101847.19;5052291;28;20215;-68
2023/11/18 06:48:19;;;;;;;7.18;3.20;;;;;;;4.49;100.00;101852.84;5052938;28;20228;-68
2023/11/18 06:50:48;;;;;;;6.70;4.25;;;;;;;4.60;100.00;101859.91;5052735;28;20565;-67
2023/11/18 06:53:17;;;;;;;3.65;2.15;;;;;;;4.71;100.00;101863.28;5055746;28;20212;-69
2023/11/18 06:55:46;;;;;;;6.20;2.75;;;;;;;4.71;100.00;101868.66;5060784;28;20197;-67
2023/11/18 06:58:15;;;;;;;5.55;2.78;;;;;;;4.69;100.00;101867.97;5052202;28;20195;-67
2023/11/18 07:00:46;;;;;;;3.25;2.45;;;;;;;4.59;100.00;101869.78;5048004;28;20192;-67
2023/11/18 07:03:17;;;;;;;4.22;3.05;;;;;;;4.58;100.00;101856.53;5047435;28;20223;-67
2023/11/18 07:05:46;;;;;;;4.38;1.90;;;;;;;4.63;100.00;101856.94;5052594;28;20689;-67
2023/11/18 07:08:15;;;;;;;6.15;3.45;;;;;;;4.65;100.00;101861.16;5058328;28;20678;-67
2023/11/18 07:10:43;;;;;;;6.80;3.08;;;;;;;4.64;100.00;101858.66;5047076;28;20276;-67
2023/11/18 07:13:12;;;;;;;3.72;3.00;;;;;;;4.69;100.00;101870.66;5050077;28;20304;-69
2023/11/18 07:15:41;;;;;;;5.00;2.35;;;;;;;4.79;100.00;101878.69;5054079;28;20564;-68
2023/11/18 07:18:12;;;;;;;8.80;3.45;;;;;;;4.80;100.00;101881.22;5051996;28;20231;-67
2023/11/18 07:20:41;;;;;;;3.13;2.80;;;;;;;4.55;100.00;101876.41;5047992;28;20686;-66
2023/11/18 07:23:10;;;;;;;7.57;3.35;;;;;;;4.53;100.00;101886.44;5050638;28;20185;-67
2023/11/18 07:25:39;;;;;;;4.43;3.38;;;;;;;4.51;100.00;101888.38;5046477;28;20201;-66
2023/11/18 07:28:08;;;;;;;4.10;2.10;;;;;;;4.40;100.00;101891.22;5043885;28;20207;-68
2023/11/18 07:30:38;;;;;;;4.80;3.05;;;;;;;4.42;100.00;101893.72;5050298;28;20189;-66
2023/11/18 07:33:08;;;;;;;5.68;4.20;;;;;;;4.40;100.00;101901.94;5052294;28;20684;-67
2023/11/18 07:35:38;;;;;;;4.50;1.95;;;;;;;4.49;100.00;101901.09;5049012;28;20557;-67
2023/11/18 07:38:07;;;;;;;6.80;3.53;;;;;;;4.66;100.00;101907.59;5051934;28;20197;-67
2023/11/18 07:40:37;;;;;;;3.10;2.28;;;;;;;4.68;100.00;101909.16;5052308;28;20211;-68
2023/11/18 07:43:08;;;;;;;3.42;2.22;;;;;;;4.74;100.00;101915.81;5050914;28;20273;-69
2023/11/18 07:45:39;;;;;;;5.47;2.90;;;;;;;4.76;100.00;101920.03;5047511;28;20193;-67
2023/11/18 07:48:08;;;;;;;7.00;4.70;;;;;;;4.89;100.00;101918.94;5051524;28;20204;-67
2023/11/18 07:50:40;;;;;;;5.68;2.95;;;;;;;5.09;100.00;101923.28;5047202;28;20199;-67
2023/11/18 07:53:10;;;;;;;6.80;4.32;;;;;;;5.11;100.00;101924.00;5052865;28;20198;-66
2023/11/18 07:55:39;;;;;;;5.25;3.67;;;;;;;5.03;100.00;101931.91;5050594;28;20189;-69
2023/11/18 07:58:10;;;;;;;7.80;3.90;;;;;;;5.14;100.00;101934.44;5047877;28;20223;-68
2023/11/18 08:00:39;;;;;;;4.10;2.83;;;;;;;5.25;100.00;101931.63;5051087;28;20192;-67
2023/11/18 08:03:11;;;;;;;6.18;3.40;;;;;;;5.01;100.00;101933.88;5050300;28;20184;-69
2023/11/18 08:05:43;;;;;;;10.63;4.93;;;;;;;5.15;100.00;101938.81;5048794;28;20667;-68
2023/11/18 08:08:12;;;;;;;11.73;5.10;;;;;;;5.22;100.00;101937.28;5050723;28;20215;-69
2023/11/18 08:10:43;;;;;;;6.60;3.45;;;;;;;5.31;100.00;101936.44;5055275;28;20193;-68
2023/11/18 08:13:12;;;;;;;6.13;3.33;;;;;;;5.30;100.00;101941.94;5054202;28;20215;-66
2023/11/18 08:15:45;;;;;;;5.90;3.13;;;;;;;5.48;100.00;101937.50;5052656;28;20597;-67
2023/11/18 08:18:14;;;;;;;6.85;2.28;;;;;;;5.39;100.00;101938.38;5052242;28;20276;-66
2023/11/18 08:20:45;;;;;;;4.80;2.72;;;;;;;5.34;100.00;101936.13;5058348;28;20242;-67
2023/11/18 08:23:14;;;;;;;5.28;3.20;;;;;;;5.30;100.00;101942.78;5052678;28;20232;-66
2023/11/18 08:25:43;;;;;;;5.03;3.47;;;;;;;5.53;100.00;101929.88;5059284;28;20185;-66
2023/11/18 08:28:13;;;;;;;5.93;3.70;;;;;;;5.57;100.00;101932.13;5065392;28;20580;-68
2023/11/18 08:30:42;;;;;;;6.78;4.65;;;;;;;5.62;100.00;101932.53;5066780;28;20201;-69
2023/11/18 08:33:11;;;;;;;6.30;3.70;;;;;;;5.63;100.00;101936.94;5063742;28;20185;-67
2023/11/18 08:35:42;;;;;;;6.45;2.80;;;;;;;5.67;100.00;101938.31;5056726;28;20196;-70
2023/11/18 08:38:12;;;;;;;5.00;2.67;;;;;;;5.69;100.00;101935.50;5063307;28;20238;-69
2023/11/18 08:40:42;;;;;;;3.53;2.35;;;;;;;5.55;100.00;101930.59;5059567;28;20312;-68
2023/11/18 08:43:11;;;;;;;7.47;3.22;;;;;;;5.50;100.00;101925.66;5058122;28;20199;-67
2023/11/18 08:45:41;;;;;;;8.98;3.42;;;;;;;5.54;100.00;101926.22;5055066;28;20193;-70
2023/11/18 08:48:10;;;;;;;3.83;2.95;;;;;;;5.43;100.00;101924.53;5053299;28;20242;-68
2023/11/18 08:50:40;;;;;;;6.38;4.68;;;;;;;5.65;100.00;101924.22;5059892;28;20193;-69
2023/11/18 08:53:09;;;;;;;4.15;2.35;;;;;;;5.79;100.00;101922.03;5065273;28;20283;-67
2023/11/18 08:55:41;;;;;;;5.82;3.30;;;;;;;5.80;100.00;101921.91;5068096;28;20600;-67
2023/11/18 08:58:19;;;;;;;3.47;2.47;;;;;;;5.69;100.00;101930.13;5062532;28;20215;-69
2023/11/18 09:00:52;;;;;;;2.80;2.28;;;;;;;5.81;100.00;101939.69;5061053;28;20252;-68
2023/11/18 09:03:27;;;;;;;8.13;3.75;;;;;;;5.76;100.00;101946.53;5062761;28;20585;-67
2023/11/18 09:05:58;;;;;;;5.88;2.55;;;;;;;5.92;100.00;101941.41;5056692;28;20192;-68
2023/11/18 09:08:29;;;;;;;4.90;3.60;;;;;;;5.91;100.00;101945.06;5056547;28;20197;-68
2023/11/18 09:10:59;;;;;;;6.55;2.65;;;;;;;5.90;100.00;101959.53;5052473;28;20201;-68
2023/11/18 09:13:29;;;;;;;3.78;2.95;;;;;;;6.00;100.00;101958.47;5073660;28;20251;-68
2023/11/18 09:16:00;;;;;;;5.80;3.08;;;;;;;6.08;100.00;101960.44;5057134;28;20211;-71
2023/11/18 09:18:30;;;;;;;6.88;4.30;;;;;;;6.23;100.00;101964.34;5059527;28;20658;-68
2023/11/18 09:21:01;;;;;;;4.10;2.58;;;;;;;6.10;100.00;101964.66;5061717;28;20558;-69
2023/11/18 09:23:34;;;;;;;3.95;2.65;;;;;;;6.03;100.00;101973.47;5061563;28;20318;-69
2023/11/18 09:26:07;;;;;;;3.95;3.25;;;;;;;5.91;100.00;101971.94;5061667;28;20184;-70
2023/11/18 09:28:37;;;;;;;6.85;3.33;;;;;;;5.86;100.00;101969.66;5055919;28;20200;-66
2023/11/18 09:31:11;;;;;;;5.78;2.55;;;;;;;6.18;100.00;101968.47;5051167;28;20189;-68
2023/11/18 09:33:46;;;;;;;5.47;3.85;;;;;;;6.21;100.00;101969.00;5057158;28;20208;-69
2023/11/18 09:36:18;;;;;;;3.67;2.80;;;;;;;6.33;100.00;101967.84;5053307;28;20565;-69
2023/11/18 09:38:47;;;;;;;7.05;2.80;;;;;;;6.26;100.00;101960.50;5055261;28;20181;-68
2023/11/18 09:41:18;;;;;;;4.28;2.70;;;;;;;6.52;100.00;101956.13;5053128;28;20209;-68
2023/11/18 09:43:52;;;;;;;6.50;2.72;;;;;;;6.50;100.00;101953.59;5047353;28;20244;-67
2023/11/18 09:46:26;;;;;;;5.75;2.25;;;;;;;6.68;97.41;101955.50;5052862;28;20193;-67
2023/11/18 09:49:15;;;;;;;10.25;4.22;;;;;;;6.77;98.64;101954.56;5053071;28;20204;-72
2023/11/18 09:51:47;;;;;;;4.07;2.33;;;;;;;6.87;95.71;101960.75;5052586;28;20602;-67
2023/11/18 09:54:29;;;;;;;3.58;2.05;;;;;;;6.87;95.74;101966.13;5052996;28;20278;-67
2023/11/18 09:57:09;;;;;;;3.17;2.03;;;;;;;6.79;95.83;101971.41;5046376;28;20246;-67
2023/11/18 09:59:54;;;;;;;6.57;3.00;;;;;;;7.10;96.47;101969.22;5057466;28;20744;-66
2023/11/18 10:02:25;;;;;;;6.13;3.13;;;;;;;6.99;95.95;101965.75;5050140;28;20227;-67
2023/11/18 10:04:58;;;;;;;9.00;3.25;;;;;;;7.11;95.85;101968.22;5051326;28;20234;-69
2023/11/18 10:07:30;;;;;;;5.10;2.78;;;;;;;7.13;94.08;101966.19;5055229;28;20197;-68
2023/11/18 10:10:01;;;;;;;4.75;2.30;;;;;;;7.20;94.42;101964.59;5053516;28;20204;-67
2023/11/18 10:12:32;;;;;;;4.55;3.00;;;;;;;7.36;92.39;101962.88;5060331;28;20196;-69
2023/11/18 10:15:03;;;;;;;3.83;2.20;;;;;;;7.12;93.86;101964.50;5055030;28;20221;-68
2023/11/18 10:17:32;;;;;;;5.22;3.80;;;;;;;7.32;94.22;101960.66;5050874;28;20279;-68
2023/11/18 10:20:12;;;;;;;5.75;3.00;;;;;;;7.26;94.03;101961.28;5052959;28;20259;-69
2023/11/18 10:22:41;;;;;;;6.03;3.20;;;;;;;7.31;94.34;101956.28;5050750;28;20195;-69
2023/11/18 10:25:13;;;;;;;6.30;3.85;;;;;;;7.66;91.93;101952.66;5058205;28;20234;-68
2023/11/18 10:27:47;;;;;;;5.95;2.20;;;;;;;7.35;93.72;101958.50;5048226;28;20255;-68
2023/11/18 10:30:21;;;;;;;5.10;2.80;;;;;;;7.71;92.78;101953.03;5048888;28;20243;-68
2023/11/18 10:33:05;;;;;;;4.93;2.90;;;;;;;7.74;91.13;101955.44;5048220;28;20654;-68
2023/11/18 10:35:35;;;;;;;5.18;2.17;;;;;;;7.44;92.24;101956.72;5053960;28;20622;-67
2023/11/18 10:38:05;;;;;;;5.68;3.45;;;;;;;7.39;93.38;101951.81;5053939;28;20188;-70
2023/11/18 10:40:36;;;;;;;9.55;4.57;;;;;;;7.30;88.62;101947.38;5051419;28;20307;-68
2023/11/18 10:43:09;;;;;;;2.53;1.85;;;;;;;7.14;89.93;101949.06;5051543;28;20538;-68
2023/11/18 10:45:40;;;;;;;4.00;2.60;;;;;;;7.01;90.43;101951.28;5052643;28;20193;-68
2023/11/18 10:48:16;;;;;;;5.20;2.30;;;;;;;7.14;89.99;101952.59;5053761;28;20253;-67
2023/11/18 10:50:48;;;;;;;4.43;2.65;;;;;;;7.19;91.02;101960.22;5053020;28;20200;-70
2023/11/18 10:53:21;;;;;;;5.00;2.72;;;;;;;7.15;91.50;101959.69;5056122;28;20732;-68
2023/11/18 10:55:50;;;;;;;5.70;2.58;;;;;;;7.14;91.07;101955.28;5052856;28;20196;-71
2023/11/18 10:58:21;;;;;;;2.22;1.85;;;;;;;7.33;90.79;101973.97;5052946;28;20582;-69
2023/11/18 11:00:52;;;;;;;3.67;2.10;;;;;;;7.26;89.17;101964.81;5048315;28;20196;-68
2023/11/18 11:03:23;;;;;;;14.57;3.10;;;;;;;7.29;90.23;101975.28;5044559;28;20263;-69
2023/11/18 11:05:54;;;;;;;3.33;2.40;;;;;;;7.39;89.03;101967.97;5048622;28;20204;-67
2023/11/18 11:08:26;;;;;;;6.78;2.30;;;;;;;7.25;89.06;101963.13;5048362;28;20196;-69
2023/11/18 11:11:09;;;;;;;3.70;3.33;;;;;;;7.40;89.92;101968.81;5052791;28;20659;-70
2023/11/18 11:13:41;;;;;;;4.15;1.80;;;;;;;7.34;90.54;101964.91;5053048;28;20212;-68
2023/11/18 11:16:19;;;;;;;4.68;2.20;;;;;;;7.26;90.76;101972.06;5048365;28;20184;-69
2023/11/18 11:18:54;;;;;;;4.22;2.03;;;;;;;7.29;91.01;101971.75;5051659;28;20266;-66
2023/11/18 11:21:29;;;;;;;10.52;2.65;;;;;;;7.31;90.62;101975.97;5050299;28;20192;-68
2023/11/18 11:24:05;;;;;;;2.92;2.00;;;;;;;7.32;89.37;101971.41;5051146;28;20261;-67
2023/11/18 11:26:42;;;;;;;4.68;2.28;;;;;;;7.31;90.44;101957.09;5053491;28;20195;-67
2023/11/18 11:29:26;;;;;;;7.80;2.35;;;;;;;7.24;90.90;101957.91;5048595;28;20204;-68
2023/11/18 11:32:12;;;;;;;4.15;2.72;;;;;;;7.41;91.07;101952.47;5054650;28;20275;-69
2023/11/18 11:34:48;;;;;;;5.05;2.30;;;;;;;7.34;90.95;101942.50;5057814;28;20270;-71
2023/11/18 11:37:19;;;;;;;10.02;4.95;;;;;;;7.43;90.38;101942.41;5055902;28;20217;-69
2023/11/18 11:39:51;;;;;;;4.30;3.13;;;;;;;7.61;89.26;101944.22;5052515;28;20192;-66
2023/11/18 11:42:21;;;;;;;4.15;3.42;;;;;;;7.61;89.09;101946.91;5056136;28;20258;-67